| time (UTC) | temp F | wind direction | speed knots | gust knots | rain 1hr in | rain 24hr in | rain mn in | humidity % | barometer mb |
| 20260510234026 | 79 | 258 | 16.5 | 22.6 | 0.00 | 0.21 | 0.10 | 80 | 1016.0 |
| 20260510233007 | 81 | 248 | 7.0 | 17.4 | 0.00 | 0.20 | 0.09 | 78 | 1015.6 |
| 20260510231958 | 81 | 132 | 7.8 | 14.8 | 0.00 | 0.20 | 0.09 | 79 | 1014.6 |
| 20260510230922 | 81 | 150 | 9.6 | 17.4 | 0.00 | 0.20 | 0.09 | 81 | 1014.3 |
| 20260510225906 | 80 | 152 | 10.4 | 20.0 | 0.05 | 0.20 | 0.09 | 82 | 1014.1 |
| 20260510224853 | 79 | 175 | 13.0 | 20.0 | 0.33 | 0.20 | 0.09 | 81 | 1014.1 |
| 20260510223902 | 80 | 188 | 12.2 | 20.0 | 0.09 | 0.13 | 0.02 | 77 | 1014.2 |
| 20260510222842 | 81 | 125 | 10.4 | 18.2 | 0.00 | 0.12 | 0.00 | 74 | 1014.0 |
| 20260510221821 | 81 | 142 | 9.6 | 18.2 | 0.00 | 0.12 | 0.00 | 77 | 1013.9 |
| 20260510220842 | 82 | 140 | 7.8 | 13.9 | 0.00 | 0.12 | 0.00 | 78 | 1014.2 |
| 20260510215809 | 82 | 147 | 7.8 | 16.5 | 0.00 | 0.12 | 0.00 | 78 | 1014.1 |
| 20260510214743 | 81 | 127 | 10.4 | 18.2 | 0.00 | 0.12 | 0.00 | 77 | 1013.9 |
| 20260510213750 | 82 | 100 | 8.7 | 18.2 | 0.00 | 0.12 | 0.00 | 77 | 1014.0 |
| 20260510212742 | 84 | 142 | 7.8 | 14.8 | 0.00 | 0.12 | 0.00 | 77 | 1014.1 |
| 20260510211733 | 83 | 144 | 7.0 | 13.0 | 0.00 | 0.12 | 0.00 | 74 | 1014.3 |
| 20260510210740 | 83 | 132 | 8.7 | 13.0 | 0.00 | 0.12 | 0.00 | 71 | 1014.4 |
| 20260510205757 | 84 | 105 | 7.0 | 13.9 | 0.00 | 0.12 | 0.00 | 70 | 1014.4 |
| 20260510204742 | 84 | 152 | 7.8 | 13.9 | 0.00 | 0.12 | 0.00 | 67 | 1014.4 |
| 20260510203740 | 84 | 130 | 7.0 | 12.2 | 0.00 | 0.12 | 0.00 | 70 | 1014.3 |
| 20260510202751 | 83 | 99 | 7.8 | 13.0 | 0.00 | 0.12 | 0.00 | 70 | 1014.1 |
| 20260510201808 | 83 | 155 | 7.8 | 13.9 | 0.00 | 0.12 | 0.00 | 71 | 1014.3 |
| 20260510200757 | 83 | 150 | 7.8 | 13.9 | 0.00 | 0.12 | 0.00 | 73 | 1014.2 |
| 20260510193502 | 84 | 121 | 6.1 | 12.2 | 0.00 | 0.12 | 0.00 | 72 | 1014.5 |
| 20260510192441 | 85 | 134 | 4.3 | 9.6 | 0.00 | 0.12 | 0.00 | 72 | 1014.4 |
| 20260510191424 | 85 | 115 | 4.3 | 10.4 | 0.00 | 0.12 | 0.00 | 71 | 1014.5 |
| 20260510190354 | 84 | 120 | 6.1 | 12.2 | 0.00 | 0.12 | 0.00 | 75 | 1014.6 |
| 20260510185341 | 84 | 143 | 6.1 | 12.2 | 0.00 | 0.12 | 0.00 | 74 | 1014.8 |
| 20260510184314 | 86 | 145 | 6.1 | 10.4 | 0.00 | 0.12 | 0.00 | 72 | 1014.8 |
| 20260510183244 | 88 | 81 | 2.6 | 7.0 | 0.00 | 0.12 | 0.00 | 66 | 1014.9 |
| 20260510181105 | 90 | 78 | 0.9 | 6.1 | 0.00 | 0.12 | 0.00 | 60 | 1015.2 |
| 20260510180049 | 90 | 296 | 4.3 | 8.7 | 0.00 | 0.12 | 0.00 | 56 | 1015.3 |
| 20260510173946 | 89 | 254 | 6.1 | 10.4 | 0.00 | 0.12 | 0.00 | 57 | 1015.4 |
| 20260510172933 | 89 | 273 | 7.0 | 10.4 | 0.00 | 0.12 | 0.00 | 60 | 1015.5 |
| 20260510171858 | 89 | 288 | 1.7 | 7.8 | 0.00 | 0.12 | 0.00 | 58 | 1015.6 |
| 20260510170914 | 89 | 223 | 0.0 | 0.0 | 0.00 | 0.12 | 0.00 | 60 | 1015.7 |
| 20260510165912 | 88 | 229 | 2.6 | 5.2 | 0.00 | 0.12 | 0.00 | 62 | 1015.9 |
| 20260510164902 | 88 | 169 | 3.5 | 7.8 | 0.00 | 0.12 | 0.00 | 62 | 1015.9 |
| 20260510163915 | 87 | 209 | 3.5 | 7.8 | 0.00 | 0.12 | 0.00 | 60 | 1015.9 |
| 20260510162858 | 87 | 192 | 4.3 | 7.0 | 0.00 | 0.12 | 0.00 | 63 | 1016.0 |
| 20260510161830 | 87 | 222 | 4.3 | 8.7 | 0.00 | 0.12 | 0.00 | 60 | 1016.1 |
| 20260510160827 | 86 | 207 | 5.2 | 8.7 | 0.00 | 0.12 | 0.00 | 65 | 1016.2 |
| 20260510155812 | 86 | 196 | 6.1 | 9.6 | 0.00 | 0.12 | 0.00 | 60 | 1016.3 |
| 20260510154759 | 86 | 188 | 7.0 | 9.6 | 0.00 | 0.12 | 0.00 | 63 | 1016.3 |
| 20260510153733 | 86 | 186 | 7.8 | 10.4 | 0.00 | 0.12 | 0.00 | 62 | 1016.3 |
| 20260510152734 | 85 | 202 | 7.8 | 11.3 | 0.00 | 0.12 | 0.00 | 62 | 1016.4 |
| 20260510151719 | 86 | 205 | 7.0 | 11.3 | 0.00 | 0.12 | 0.00 | 60 | 1016.3 |
| 20260510150652 | 85 | 227 | 7.0 | 9.6 | 0.00 | 0.12 | 0.00 | 64 | 1016.4 |
| 20260510144449 | 84 | 194 | 5.2 | 9.6 | 0.00 | 0.12 | 0.00 | 67 | 1016.3 |
| 20260510143424 | 84 | 216 | 4.3 | 7.8 | 0.00 | 0.12 | 0.00 | 70 | 1016.3 |
| 20260510142353 | 83 | 232 | 3.5 | 6.1 | 0.00 | 0.12 | 0.00 | 70 | 1016.2 |
| 20260510135031 | 81 | 237 | 2.6 | 5.2 | 0.00 | 0.12 | 0.00 | 79 | 1016.1 |
| 20260510134028 | 80 | 211 | 4.3 | 6.1 | 0.00 | 0.12 | 0.00 | 82 | 1016.2 |
| 20260510132953 | 79 | 215 | 4.3 | 6.1 | 0.00 | 0.12 | 0.00 | 83 | 1016.1 |
| 20260510131924 | 79 | 220 | 3.5 | 4.3 | 0.00 | 0.12 | 0.00 | 84 | 1016.1 |
| 20260510125757 | 78 | 187 | 3.5 | 5.2 | 0.00 | 0.12 | 0.00 | 86 | 1015.8 |
| 20260510124805 | 78 | 215 | 4.3 | 5.2 | 0.00 | 0.12 | 0.00 | 86 | 1015.9 |
| 20260510123827 | 78 | 220 | 3.5 | 5.2 | 0.00 | 0.12 | 0.00 | 87 | 1015.8 |
| 20260510122828 | 78 | 214 | 2.6 | 5.2 | 0.00 | 0.12 | 0.00 | 87 | 1015.5 |
| 20260510121818 | 78 | 214 | 4.3 | 5.2 | 0.00 | 0.12 | 0.00 | 87 | 1015.4 |
| 20260510120816 | 77 | 195 | 3.5 | 5.2 | 0.00 | 0.12 | 0.00 | 87 | 1015.2 |
| 20260510115806 | 77 | 224 | 3.5 | 7.0 | 0.00 | 0.12 | 0.00 | 87 | 1015.2 |
| 20260510114825 | 77 | 218 | 5.2 | 7.8 | 0.00 | 0.12 | 0.00 | 87 | 1015.1 |
| 20260510113830 | 77 | 206 | 6.1 | 7.8 | 0.00 | 0.12 | 0.00 | 87 | 1014.7 |
| 20260510112759 | 77 | 208 | 5.2 | 7.0 | 0.00 | 0.12 | 0.00 | 87 | 1014.4 |
| 20260510111821 | 77 | 207 | 4.3 | 6.1 | 0.00 | 0.12 | 0.00 | 87 | 1014.3 |
| 20260510110819 | 77 | 219 | 4.3 | 7.0 | 0.00 | 0.12 | 0.00 | 87 | 1014.2 |
| 20260510105831 | 77 | 233 | 6.1 | 7.8 | 0.00 | 0.12 | 0.00 | 87 | 1014.2 |
| 20260510104756 | 77 | 219 | 6.1 | 7.8 | 0.00 | 0.12 | 0.00 | 87 | 1014.0 |
| 20260510103757 | 77 | 215 | 4.3 | 6.1 | 0.00 | 0.12 | 0.00 | 86 | 1013.9 |
| 20260510102748 | 77 | 219 | 4.3 | 5.2 | 0.00 | 0.12 | 0.00 | 86 | 1013.8 |
| 20260510101759 | 78 | 227 | 4.3 | 5.2 | 0.00 | 0.12 | 0.00 | 86 | 1013.8 |
| 20260510100729 | 78 | 217 | 3.5 | 4.3 | 0.00 | 0.12 | 0.00 | 86 | 1013.5 |
| 20260510095749 | 79 | 239 | 2.6 | 3.5 | 0.00 | 0.12 | 0.00 | 86 | 1013.5 |
| 20260510094734 | 79 | 246 | 1.7 | 2.6 | 0.00 | 0.12 | 0.00 | 86 | 1013.4 |
| 20260510093749 | 79 | 271 | 0.0 | 2.6 | 0.00 | 0.12 | 0.00 | 86 | 1013.3 |
| 20260510092717 | 78 | 194 | 0.0 | 0.0 | 0.00 | 0.12 | 0.00 | 86 | 1013.2 |
| 20260510091656 | 78 | 105 | 0.0 | 0.0 | 0.00 | 0.12 | 0.00 | 86 | 1013.1 |
| 20260510090713 | 78 | 105 | 0.0 | 0.0 | 0.00 | 0.12 | 0.00 | 86 | 1013.1 |
| 20260510085718 | 78 | 105 | 0.0 | 0.0 | 0.00 | 0.12 | 0.00 | 86 | 1013.0 |
| 20260510084718 | 78 | 105 | 0.0 | 0.0 | 0.00 | 0.12 | 0.00 | 86 | 1013.0 |
| 20260510083733 | 78 | 34 | 0.0 | 0.0 | 0.00 | 0.12 | 0.00 | 86 | 1013.0 |
| 20260510082719 | 78 | 34 | 0.0 | 0.0 | 0.00 | 0.12 | 0.00 | 86 | 1013.0 |
| 20260510081741 | 78 | 34 | 0.0 | 0.0 | 0.00 | 0.12 | 0.00 | 86 | 1013.1 |
| 20260510080730 | 78 | 34 | 0.0 | 0.0 | 0.00 | 0.12 | 0.00 | 86 | 1013.1 |
| 20260510074542 | 78 | 34 | 0.0 | 0.0 | 0.00 | 0.12 | 0.00 | 85 | 1013.2 |
| 20260510071336 | 79 | 17 | 0.9 | 2.6 | 0.00 | 0.12 | 0.00 | 85 | 1013.2 |
| 20260510065208 | 79 | 5 | 1.7 | 4.3 | 0.00 | 0.12 | 0.00 | 85 | 1013.3 |
| 20260510064153 | 79 | 30 | 1.7 | 3.5 | 0.00 | 0.12 | 0.00 | 85 | 1013.4 |
| 20260510063215 | 79 | 342 | 0.9 | 3.5 | 0.00 | 0.12 | 0.00 | 85 | 1013.5 |
| 20260510062226 | 79 | 20 | 1.7 | 3.5 | 0.00 | 0.12 | 0.00 | 85 | 1013.6 |
| 20260510061213 | 79 | 11 | 1.7 | 3.5 | 0.00 | 0.12 | 0.00 | 85 | 1013.8 |
| 20260510060232 | 79 | 350 | 1.7 | 3.5 | 0.00 | 0.12 | 0.00 | 85 | 1013.7 |
| 20260510055219 | 78 | 19 | 1.7 | 6.1 | 0.00 | 0.12 | 0.00 | 85 | 1013.8 |
| 20260510054231 | 78 | 18 | 2.6 | 6.1 | 0.00 | 0.12 | 0.00 | 85 | 1013.9 |
| 20260510053212 | 78 | 16 | 2.6 | 7.0 | 0.00 | 0.12 | 0.00 | 85 | 1013.9 |
| 20260510052214 | 78 | 5 | 2.6 | 7.0 | 0.00 | 0.12 | 0.00 | 85 | 1013.8 |
| 20260510051208 | 78 | 26 | 3.5 | 7.0 | 0.00 | 0.12 | 0.00 | 85 | 1013.9 |
| 20260510050221 | 79 | 343 | 3.5 | 7.8 | 0.00 | 0.12 | 0.00 | 85 | 1014.0 |
| 20260510045237 | 79 | 347 | 4.3 | 8.7 | 0.00 | 0.12 | 0.00 | 85 | 1013.9 |
| 20260510043123 | 79 | 346 | 3.5 | 7.0 | 0.00 | 0.12 | 0.00 | 84 | 1014.0 |
| 20260510042103 | 79 | 344 | 3.5 | 7.0 | 0.00 | 0.12 | 0.00 | 84 | 1014.2 |
| 20260510041055 | 78 | 332 | 2.6 | 6.1 | 0.00 | 0.12 | 0.00 | 84 | 1014.1 |
| 20260510040106 | 78 | 31 | 3.5 | 8.7 | 0.00 | 0.12 | 0.00 | 84 | 1014.2 |
| 20260510035123 | 78 | 10 | 3.5 | 9.6 | 0.00 | 0.12 | 0.12 | 84 | 1014.1 |
| 20260510034139 | 78 | 38 | 4.3 | 9.6 | 0.00 | 0.12 | 0.12 | 84 | 1014.0 |
| 20260510033113 | 79 | 348 | 5.2 | 9.6 | 0.00 | 0.12 | 0.12 | 84 | 1014.1 |
| 20260510032039 | 79 | 18 | 7.0 | 11.3 | 0.00 | 0.12 | 0.12 | 83 | 1014.0 |
| 20260510031024 | 80 | 335 | 7.8 | 11.3 | 0.00 | 0.12 | 0.12 | 83 | 1013.8 |
| 20260510024834 | 80 | 297 | 7.0 | 7.8 | 0.00 | 0.12 | 0.12 | 80 | 1014.1 |
| 20260510023833 | 80 | 322 | 6.1 | 7.8 | 0.00 | 0.12 | 0.12 | 78 | 1014.1 |
| 20260510022804 | 80 | 303 | 6.1 | 7.0 | 0.00 | 0.12 | 0.12 | 78 | 1014.2 |
| 20260510021749 | 80 | 294 | 5.2 | 7.8 | 0.00 | 0.12 | 0.12 | 79 | 1014.0 |
| 20260510020716 | 80 | 261 | 7.8 | 9.6 | 0.00 | 0.12 | 0.12 | 80 | 1014.0 |
| 20260510015650 | 80 | 225 | 9.6 | 13.9 | 0.00 | 0.12 | 0.12 | 80 | 1013.8 |
| 20260510014627 | 81 | 199 | 1.7 | 13.9 | 0.00 | 0.12 | 0.12 | 80 | 1013.7 |
| 20260510013601 | 79 | 333 | 1.7 | 6.1 | 0.00 | 0.12 | 0.12 | 80 | 1013.0 |
| 20260510012612 | 79 | 346 | 1.7 | 6.1 | 0.00 | 0.12 | 0.12 | 80 | 1012.8 |
| 20260510011632 | 79 | 339 | 2.6 | 4.3 | 0.00 | 0.12 | 0.12 | 81 | 1012.6 |
| 20260510010613 | 79 | 326 | 1.7 | 7.8 | 0.00 | 0.12 | 0.12 | 80 | 1012.5 |
| 20260510005546 | 79 | 340 | 6.1 | 12.2 | 0.00 | 0.12 | 0.12 | 80 | 1012.3 |
| 20260510004518 | 80 | 323 | 8.7 | 13.9 | 0.05 | 0.12 | 0.12 | 81 | 1012.2 |
| 20260510003521 | 80 | 309 | 10.4 | 13.9 | 0.25 | 0.12 | 0.12 | 80 | 1012.3 |
| 20260510002508 | 81 | 296 | 8.7 | 13.0 | 0.00 | 0.09 | 0.09 | 78 | 1012.5 |
| 20260510001459 | 80 | 317 | 6.1 | 13.0 | 0.05 | 0.09 | 0.09 | 81 | 1012.3 |
| 20260510000428 | 79 | 46 | 3.5 | 25.2 | 0.05 | 0.08 | 0.08 | 82 | 1012.1 |
| 20260509235445 | 80 | 355 | 12.2 | 25.2 | 0.49 | 0.08 | 0.08 | 79 | 1011.8 |